Airfield :
LOGIN :

Register | Disclaimer

   EN    FR    IT 

 










Legend :    VFR   Marginal VFR   IFR   Intensive IFR   Very Intensive IFR
Visi :
Ceiling :
>= 8 km
>= 3000ft
5 to 8 km
1000 to 3000 ft
1500m to 5 km
500 to 1000 ft
800 to 1500m
200 to 500 ft
< 800m
< 200 ft
Symbols :   Thunderstorms  Fog  Heavy snow  Heavy precipitations  Wind > 20 kt
SIGMETs :     Misc.  Thunderstorms  Icing  Turbulence  Mountain Waves  Volcanic Ashes







- Airport Elevation : 79 ft
- IATA code : NSY


LICZ - Sigonella (Mil) Catania

CURRENT METAR :
  • 210755Z 30004KT CAVOK 20/10 Q1017 RMK FEW FEW200 VIS MIN 9999 WIND THR28 29005KT WIND THR10 28005KT A3005 BLU

EXPIRED METARs :
  • 210655Z 30006KT CAVOK 18/10 Q1017
  • 210555Z 25004KT CAVOK 15/12 Q1016 RMK SKC VIS MIN 9999 WIND THR28 26004KT WIND THR10 25004KT A3002 BLU

TAF TAF LICZ
Valid from the 21 at 09:00 until the 21 at 18:00 UTC


210800Z 2109/2118 28005KT CAVOK
BECMG 2112/2115 09014KT 9999 FEW030
No reported NOTAMs for that airfield.
1 SIGMET reported for the Roma FIR (LIRR) :
 
Severe turbulence
LIRR SIGMET 2 VALID 210815/211030 LIIB
LIRR ROMA FIR SEV TURB FCST WI N4121 E00818 - N4121 E00946 - N4155 E00945 - N4150 E01405 - N4004 E01404 - N4007 E00758 - N4101 E00757 - N4121 E00818 FL270/350 STNR NC=



MET'MAP, your aeronautical weather chart ! - Copyright ORBIFLY December 2007 - Disclaimer

ORBIFLY MET'MAP TEAM :

Programming & Development : Alexandra Zaïnal
Concept & Development : Baudouin d'Aumeries
Co-Development & Prog : Marc-Olivier Méhu
Technical & hardware support : Manuel Goepfert

Contact : metmap@orbifly.com




SOURCES & CREDITS :

   NOAA